Weather at Skien Hospital Heliport

Public forecast

Using degrees Celsius for public forecast. Weather courtesy of forecast.io.

Closest aviation weather report (METAR) to Skien Hospital Heliport

Closest report is Sandefjord Airport, Torp, 20.5 nm (37.9 km) E.

2024/05/27 22:50 (retrieved 19 minutes ago)

ENTO 272250Z AUTO 19006KT 9999 FEW120/// 14/13 Q1016

Closest aviation forecast (TAF) to Skien Hospital Heliport

Closest forecast is Sandefjord Airport, Torp, 20.5 nm (37.9 km) E.

2024/05/27 18:37 (retrieved 5 hours ago)

TAF ENTO 271700Z 2718/2818 18008KT 9999 FEW012 SCT020 TEMPO 2718/2720 SCT020CB PROB40 2718/2808 BKN008 BECMG 2812/2814 36015KT TEMPO 2812/2818 SHRA BKN020CB PROB40 2812/2817 TS